createdAt,value
2022-09-26T00:00:14.591Z,100035.20
2022-09-26T00:02:45.697Z,100039.37
2022-09-26T00:05:16.429Z,100037.36
2022-09-26T00:07:46.810Z,100033.91
2022-09-26T00:10:17.352Z,100039.98
2022-09-26T00:12:47.740Z,100036.02
2022-09-26T00:15:18.135Z,100038.52
2022-09-26T00:17:48.484Z,100032.60
2022-09-26T00:20:18.948Z,100030.94
2022-09-26T00:22:49.400Z,100024.67
2022-09-26T00:25:20.487Z,100026.35
2022-09-26T00:27:50.793Z,100024.84
2022-09-26T00:30:21.171Z,100025.27
2022-09-26T00:32:52.112Z,100023.05
2022-09-26T00:35:22.521Z,100021.91
2022-09-26T00:37:52.866Z,100021.44
2022-09-26T00:40:27.986Z,100019.00
2022-09-26T00:42:59.167Z,100023.19
2022-09-26T00:45:33.257Z,100020.36
2022-09-26T00:48:06.669Z,100017.65
2022-09-26T00:50:41.374Z,100020.39
2022-09-26T00:53:15.117Z,100016.44
2022-09-26T00:55:49.592Z,100011.10
2022-09-26T00:58:23.489Z,100011.70
2022-09-26T01:00:54.987Z,100012.66
2022-09-26T01:03:27.713Z,100008.56
2022-09-26T01:06:00.259Z,100003.96
2022-09-26T01:08:34.229Z,100003.13
2022-09-26T01:11:05.902Z,100002.10
2022-09-26T01:13:39.460Z,99997.44
2022-09-26T01:16:10.348Z,99992.41
2022-09-26T01:18:41.672Z,99989.34
2022-09-26T01:21:30.429Z,99991.36
2022-09-26T01:24:36.059Z,99987.89
2022-09-26T01:27:44.886Z,99983.45
2022-09-26T01:30:18.062Z,99985.15
2022-09-26T01:33:25.608Z,99978.23
2022-09-26T01:36:12.247Z,99981.20
2022-09-26T01:38:53.747Z,99976.53
2022-09-26T01:41:45.291Z,99981.91
2022-09-26T01:44:28.128Z,99984.50
2022-09-26T01:47:02.113Z,99982.73
2022-09-26T01:49:37.540Z,99984.45
2022-09-26T01:52:15.017Z,99978.61
2022-09-26T01:54:54.289Z,99975.58
2022-09-26T01:57:30.979Z,99972.53
2022-09-26T02:00:05.170Z,99970.33
2022-09-26T02:02:47.935Z,99971.20
2022-09-26T02:05:32.585Z,99971.51
2022-09-26T02:08:08.455Z,99969.70
2022-09-26T02:10:45.041Z,99971.86
2022-09-26T02:13:19.720Z,99971.46
2022-09-26T02:15:58.897Z,99971.37
2022-09-26T02:18:37.524Z,99968.66
2022-09-26T02:21:15.711Z,99971.72
2022-09-26T02:23:47.581Z,99969.70
2022-09-26T02:26:18.833Z,99965.21
2022-09-26T02:28:49.686Z,99958.61
2022-09-26T02:31:24.624Z,99957.12
2022-09-26T02:33:56.474Z,99952.44
2022-09-26T02:36:27.451Z,99947.41
2022-09-26T02:38:57.720Z,99941.52
2022-09-26T02:41:53.615Z,99940.52
2022-09-26T02:44:47.668Z,99934.59
2022-09-26T02:47:36.594Z,99927.23
2022-09-26T02:50:22.270Z,99921.84
2022-09-26T02:53:06.378Z,99919.08
2022-09-26T02:55:49.055Z,99913.70
2022-09-26T02:58:36.021Z,99907.91
2022-09-26T03:01:16.039Z,99902.96
2022-09-26T03:03:52.192Z,99896.89
2022-09-26T03:06:31.666Z,99893.92
2022-09-26T03:09:04.485Z,99886.38
2022-09-26T03:11:37.002Z,99878.48
2022-09-26T03:14:08.638Z,99881.12
2022-09-26T03:16:45.139Z,99880.79
2022-09-26T03:19:26.846Z,99877.52
2022-09-26T03:21:57.611Z,99884.20
2022-09-26T03:24:28.368Z,99878.23
2022-09-26T03:27:05.084Z,99873.80
2022-09-26T03:29:39.485Z,99879.94
2022-09-26T03:32:11.098Z,99878.25
2022-09-26T03:34:41.868Z,99879.77
2022-09-26T03:37:12.381Z,99878.15
2022-09-26T03:39:42.904Z,99873.60
2022-09-26T03:42:22.893Z,99867.68
2022-09-26T03:44:53.647Z,99863.18
2022-09-26T03:47:32.853Z,99850.60
2022-09-26T03:50:03.930Z,99849.75
2022-09-26T03:52:36.049Z,99845.36
2022-09-26T03:55:05.804Z,99839.41
2022-09-26T03:57:36.285Z,99839.56
2022-09-26T04:00:17.766Z,99835.27
2022-09-26T04:02:48.884Z,99829.69
2022-09-26T04:05:34.545Z,99828.89
2022-09-26T04:08:05.821Z,99832.88
2022-09-26T04:10:37.218Z,99820.77
2022-09-26T04:13:08.962Z,99822.21
2022-09-26T04:15:40.433Z,99814.66
2022-09-26T04:18:15.066Z,99815.31
2022-09-26T04:20:45.576Z,99819.14
2022-09-26T04:23:17.653Z,99813.83
2022-09-26T04:25:48.511Z,99813.67
2022-09-26T04:28:18.952Z,99814.33
2022-09-26T04:30:50.327Z,99816.98
2022-09-26T04:33:21.227Z,99812.48
2022-09-26T04:36:09.432Z,99802.27
2022-09-26T04:38:41.013Z,99807.81
2022-09-26T04:41:15.361Z,99805.00
2022-09-26T04:43:45.958Z,99801.30
2022-09-26T04:46:22.217Z,99797.65
2022-09-26T04:48:56.150Z,99791.33
2022-09-26T04:51:28.715Z,99788.27
2022-09-26T04:53:59.581Z,99786.23
2022-09-26T04:56:32.043Z,99787.83
2022-09-26T04:59:02.971Z,99785.08
2022-09-26T05:01:40.954Z,99783.02
2022-09-26T05:04:18.685Z,99783.20
2022-09-26T05:06:49.840Z,99777.13
2022-09-26T05:09:30.795Z,99773.64
2022-09-26T05:12:17.261Z,99768.48
2022-09-26T05:14:49.170Z,99767.52
2022-09-26T05:17:24.352Z,99766.55
2022-09-26T05:19:55.776Z,99766.08
2022-09-26T05:22:35.518Z,99766.78
2022-09-26T05:25:23.889Z,99764.39
2022-09-26T05:27:54.434Z,99767.10
2022-09-26T05:30:25.844Z,99767.29
2022-09-26T05:32:58.303Z,99757.67
2022-09-26T05:35:29.009Z,99761.02
2022-09-26T05:38:03.355Z,99759.61
2022-09-26T05:40:51.644Z,99757.97
2022-09-26T05:43:22.785Z,99754.98
2022-09-26T05:45:58.989Z,99751.52
2022-09-26T05:48:32.291Z,99749.95
2022-09-26T05:51:09.100Z,99748.79
2022-09-26T05:53:43.189Z,99748.79
2022-09-26T05:56:18.768Z,99747.59
2022-09-26T05:59:12.045Z,99742.00
2022-09-26T06:01:52.039Z,99740.21
2022-09-26T06:04:31.606Z,99738.60
2022-09-26T06:07:31.901Z,99734.80
2022-09-26T06:10:06.400Z,99731.23
2022-09-26T06:12:46.442Z,99729.31
2022-09-26T06:15:19.685Z,99724.71
2022-09-26T06:17:58.070Z,99721.11
2022-09-26T06:20:28.511Z,99718.32
2022-09-26T06:22:59.140Z,99710.61
2022-09-26T06:25:30.347Z,99708.71
2022-09-26T06:28:04.121Z,99707.21
2022-09-26T06:30:34.762Z,99705.57
2022-09-26T06:33:13.599Z,99703.69
2022-09-26T06:36:13.930Z,99698.80
2022-09-26T06:38:44.303Z,99696.89
2022-09-26T06:41:19.563Z,99694.07
2022-09-26T06:43:50.325Z,99693.00
2022-09-26T06:46:23.529Z,99691.03
2022-09-26T06:49:00.023Z,99693.03
2022-09-26T06:51:44.967Z,99687.64
2022-09-26T06:54:14.664Z,99682.58
2022-09-26T06:56:45.075Z,99676.63
2022-09-26T06:59:16.993Z,99673.31
2022-09-26T07:02:12.605Z,99670.91
2022-09-26T07:05:02.776Z,99670.89
2022-09-26T07:07:46.736Z,99667.15
2022-09-26T07:10:25.966Z,99672.83
2022-09-26T07:13:08.105Z,99667.50
2022-09-26T07:15:40.114Z,99670.41
2022-09-26T07:18:33.717Z,99677.98
2022-09-26T07:21:08.334Z,99677.80
2022-09-26T07:23:57.145Z,99679.04
2022-09-26T07:26:27.647Z,99679.23
2022-09-26T07:28:57.496Z,99677.59
2022-09-26T07:31:31.030Z,99675.38
2022-09-26T07:34:25.184Z,99676.97
2022-09-26T07:36:55.775Z,99673.90
2022-09-26T07:39:27.335Z,99671.02
2022-09-26T07:41:58.166Z,99672.60
2022-09-26T07:47:36.931Z,99663.11
2022-09-26T07:50:15.175Z,99662.33
2022-09-26T07:53:04.509Z,99659.54
2022-09-26T07:55:54.991Z,99658.30
2022-09-26T07:58:43.930Z,99661.27
2022-09-26T08:01:47.069Z,99653.39
2022-09-26T08:04:51.353Z,99648.27
2022-09-26T08:07:23.921Z,99652.45
2022-09-26T08:10:07.690Z,99652.07
2022-09-26T08:13:07.109Z,99647.23
2022-09-26T08:15:45.486Z,99644.18
2022-09-26T08:18:25.132Z,99641.49
2022-09-26T08:20:55.569Z,99638.52
2022-09-26T08:23:26.221Z,99631.38
2022-09-26T08:26:23.986Z,99633.13
2022-09-26T08:29:01.662Z,99638.52
2022-09-26T08:31:33.548Z,99630.23
2022-09-26T08:34:04.193Z,99627.18
2022-09-26T08:36:35.965Z,99627.52
2022-09-26T08:39:10.963Z,99623.17
2022-09-26T08:42:18.119Z,99631.00
2022-09-26T08:45:50.577Z,99629.23
2022-09-26T08:48:53.281Z,99622.54
2022-09-26T08:51:34.483Z,99621.93
2022-09-26T08:54:12.244Z,99618.40
2022-09-26T08:56:49.751Z,99618.56
2022-09-26T08:59:29.847Z,99618.32
2022-09-26T09:02:05.294Z,99619.46
2022-09-26T09:04:57.614Z,99614.40
2022-09-26T09:07:29.233Z,99616.15
2022-09-26T09:10:02.320Z,99612.63
2022-09-26T09:13:01.216Z,99613.02
2022-09-26T09:16:01.133Z,99601.12
2022-09-26T09:19:00.185Z,99604.40
2022-09-26T09:22:16.406Z,99601.05
2022-09-26T09:25:04.821Z,99603.60
2022-09-26T09:27:54.438Z,99592.48
2022-09-26T09:30:32.292Z,99583.44
2022-09-26T09:33:22.183Z,99585.33
2022-09-26T09:36:04.135Z,99581.30
2022-09-26T09:38:43.665Z,99578.63
2022-09-26T09:41:28.383Z,99581.01
2022-09-26T09:44:03.956Z,99576.79
2022-09-26T09:46:40.816Z,99565.71
2022-09-26T09:49:21.219Z,99565.72
2022-09-26T09:52:05.402Z,99559.96
2022-09-26T09:54:50.258Z,99554.15
2022-09-26T09:57:44.483Z,99549.96
2022-09-26T10:00:18.703Z,99539.77
2022-09-26T10:03:02.667Z,99534.33
2022-09-26T10:05:42.627Z,99534.17
2022-09-26T10:08:17.517Z,99523.61
2022-09-26T10:11:23.208Z,99523.59
2022-09-26T10:14:06.051Z,99523.67
2022-09-26T10:17:18.873Z,99520.65
2022-09-26T10:20:37.109Z,99516.05
2022-09-26T10:23:19.320Z,99513.44
2022-09-26T10:25:53.288Z,99510.03
2022-09-26T10:28:35.836Z,99500.40
2022-09-26T10:31:10.644Z,99495.92
2022-09-26T10:34:09.705Z,99497.00
2022-09-26T10:36:41.690Z,99501.42
2022-09-26T10:39:38.784Z,99490.02
2022-09-26T10:42:17.808Z,99489.98
2022-09-26T10:44:50.537Z,99488.48
2022-09-26T10:47:27.113Z,99489.74
2022-09-26T10:50:19.404Z,99488.20
2022-09-26T10:53:17.391Z,99482.67
2022-09-26T10:55:57.609Z,99486.83
2022-09-26T10:58:30.418Z,99490.27
2022-09-26T11:01:07.180Z,99489.91
2022-09-26T11:03:45.072Z,99480.14
2022-09-26T11:06:33.988Z,99479.02
2022-09-26T11:09:20.655Z,99475.71
2022-09-26T11:12:29.251Z,99461.73
2022-09-26T11:15:10.851Z,99464.94
2022-09-26T11:17:49.090Z,99458.50
2022-09-26T11:20:30.168Z,99451.12
2022-09-26T11:23:12.255Z,99445.94
2022-09-26T11:25:57.730Z,99446.13
2022-09-26T11:28:36.569Z,99434.38
2022-09-26T11:31:31.269Z,99430.91
2022-09-26T11:34:26.986Z,99429.42
2022-09-26T11:37:37.773Z,99415.89
2022-09-26T11:40:21.882Z,99409.75
2022-09-26T11:43:10.063Z,99401.33
2022-09-26T11:45:54.275Z,99398.47
2022-09-26T11:48:55.744Z,99398.21
2022-09-26T11:52:02.177Z,99392.09
2022-09-26T11:54:50.824Z,99386.30
2022-09-26T11:57:35.649Z,99380.90
2022-09-26T12:00:24.206Z,99377.52
2022-09-26T12:03:17.367Z,99369.92
2022-09-26T12:05:56.715Z,99363.73
2022-09-26T12:08:47.674Z,99356.96
2022-09-26T12:11:27.309Z,99350.75
2022-09-26T12:14:05.812Z,99347.30
2022-09-26T12:16:42.385Z,99338.80
2022-09-26T12:19:21.496Z,99332.11
2022-09-26T12:22:18.553Z,99332.16
2022-09-26T12:24:58.837Z,99328.33
2022-09-26T12:27:35.953Z,99322.87
2022-09-26T12:30:13.102Z,99314.16
2022-09-26T12:33:05.727Z,99309.22
2022-09-26T12:35:48.046Z,99313.09
2022-09-26T12:38:33.401Z,99307.92
2022-09-26T12:41:19.993Z,99295.95
2022-09-26T12:44:06.184Z,99288.30
2022-09-26T12:47:00.071Z,99289.02
2022-09-26T12:49:55.243Z,99284.69
2022-09-26T12:52:41.324Z,99278.41
2022-09-26T12:55:23.405Z,99273.50
2022-09-26T12:58:09.541Z,99275.64
2022-09-26T13:00:50.616Z,99283.20
2022-09-26T13:03:52.041Z,99284.60
2022-09-26T13:06:35.316Z,99281.98
2022-09-26T13:09:21.784Z,99281.85
2022-09-26T13:12:04.226Z,99276.33
2022-09-26T13:14:50.809Z,99284.80
2022-09-26T13:17:25.307Z,99291.30
2022-09-26T13:20:01.480Z,99293.83
2022-09-26T13:22:40.151Z,99293.16
2022-09-26T13:25:19.036Z,99286.88
2022-09-26T13:27:57.986Z,99291.63
2022-09-26T13:30:35.591Z,99292.09
2022-09-26T13:33:11.758Z,99293.01
2022-09-26T13:35:45.303Z,99288.62
2022-09-26T13:38:34.683Z,99287.65
2022-09-26T13:41:17.979Z,99283.42
2022-09-26T13:44:03.519Z,99280.23
2022-09-26T13:46:51.064Z,99279.14
2022-09-26T13:49:45.206Z,99275.45
2022-09-26T13:52:27.620Z,99269.14
2022-09-26T13:55:02.908Z,99264.60
2022-09-26T13:57:39.680Z,99265.26
2022-09-26T14:00:41.444Z,99259.75
2022-09-26T14:03:45.897Z,99261.11
2022-09-26T14:06:35.809Z,99257.11
2022-09-26T14:09:40.582Z,99260.06
2022-09-26T14:12:22.661Z,99253.94
2022-09-26T14:15:17.341Z,99245.96
2022-09-26T14:18:16.345Z,99240.11
2022-09-26T14:21:01.640Z,99231.95
2022-09-26T14:23:44.407Z,99223.95
2022-09-26T14:26:22.045Z,99221.58
2022-09-26T14:29:11.897Z,99226.75
2022-09-26T14:31:43.949Z,99227.88
2022-09-26T14:34:23.607Z,99220.33
2022-09-26T14:37:03.587Z,99210.88
2022-09-26T14:39:44.457Z,99207.35
2022-09-26T14:42:23.857Z,99205.60
2022-09-26T14:44:59.753Z,99210.94
2022-09-26T14:47:41.199Z,99211.11
2022-09-26T14:50:15.630Z,99199.90
2022-09-26T14:52:54.382Z,99194.83
2022-09-26T14:55:26.766Z,99185.86
2022-09-26T14:58:30.492Z,99182.95
2022-09-26T15:01:04.947Z,99176.91
2022-09-26T15:03:36.968Z,99175.98
2022-09-26T15:06:13.521Z,99171.64
2022-09-26T15:08:44.185Z,99168.48
2022-09-26T15:11:32.630Z,99165.95
2022-09-26T15:14:12.954Z,99150.97
2022-09-26T15:16:50.009Z,99148.02
2022-09-26T15:19:26.086Z,99141.23
2022-09-26T15:22:01.649Z,99138.74
2022-09-26T15:24:34.485Z,99132.98
2022-09-26T15:27:12.436Z,99129.50
2022-09-26T15:29:47.520Z,99127.16
2022-09-26T15:32:25.632Z,99120.23
2022-09-26T15:34:57.719Z,99124.26
2022-09-26T15:37:31.943Z,99115.55
2022-09-26T15:40:16.800Z,99109.46
2022-09-26T15:43:01.752Z,99108.02
2022-09-26T15:45:34.268Z,99102.29
2022-09-26T15:48:27.385Z,99102.52
2022-09-26T15:51:01.560Z,99103.84
2022-09-26T15:53:39.485Z,99095.08
2022-09-26T15:56:14.291Z,99091.41
2022-09-26T15:58:51.529Z,99089.23
2022-09-26T16:01:25.697Z,99092.98
2022-09-26T16:04:01.279Z,99092.23
2022-09-26T16:06:35.097Z,99092.30
2022-09-26T16:09:17.610Z,99087.27
2022-09-26T16:11:51.826Z,99083.38
2022-09-26T16:14:30.933Z,99083.15
2022-09-26T16:17:12.914Z,99084.02
2022-09-26T16:19:48.593Z,99078.45
2022-09-26T16:22:44.928Z,99074.67
2022-09-26T16:25:34.485Z,99078.27
2022-09-26T16:28:45.090Z,99076.70
2022-09-26T16:31:31.379Z,99073.27
2022-09-26T16:34:02.417Z,99075.74
2022-09-26T16:36:35.272Z,99070.73
2022-09-26T16:39:08.973Z,99066.11
2022-09-26T16:42:02.325Z,99065.92
2022-09-26T16:44:37.556Z,99063.66
2022-09-26T16:47:38.512Z,99065.42
2022-09-26T16:50:29.732Z,99057.30
2022-09-26T16:53:02.925Z,99054.52
2022-09-26T16:55:37.472Z,99046.98
2022-09-26T16:58:14.045Z,99039.39
2022-09-26T17:01:02.449Z,99035.20
2022-09-26T17:03:36.206Z,99030.67
2022-09-26T17:06:07.520Z,99031.98
2022-09-26T17:08:38.028Z,99025.53
2022-09-26T17:11:31.079Z,99022.02
2022-09-26T17:14:01.694Z,99016.74
2022-09-26T17:16:34.347Z,99011.64
2022-09-26T17:19:07.326Z,99004.98
2022-09-26T17:21:38.665Z,99002.35
2022-09-26T17:24:13.859Z,98996.36
2022-09-26T17:26:53.154Z,98996.81
2022-09-26T17:29:27.766Z,98993.77
2022-09-26T17:32:00.203Z,98986.64
2022-09-26T17:34:34.835Z,98984.05
2022-09-26T17:37:09.991Z,98980.51
2022-09-26T17:39:41.234Z,98972.97
2022-09-26T17:42:15.550Z,98970.98
2022-09-26T17:44:48.479Z,98965.85
2022-09-26T17:47:20.372Z,98961.30
2022-09-26T17:49:56.324Z,98959.45
2022-09-26T17:52:31.283Z,98952.14
2022-09-26T17:55:05.977Z,98948.98
2022-09-26T17:57:41.534Z,98941.23
2022-09-26T18:00:16.511Z,98939.45
2022-09-26T18:02:50.300Z,98938.03
2022-09-26T18:05:25.614Z,98943.70
2022-09-26T18:08:01.150Z,98946.60
2022-09-26T18:10:34.963Z,98951.05
2022-09-26T18:13:13.308Z,98957.43
2022-09-26T18:15:44.243Z,98952.02
2022-09-26T18:18:18.085Z,98945.36
2022-09-26T18:20:49.333Z,98943.91
2022-09-26T18:23:20.758Z,98938.70
2022-09-26T18:25:54.824Z,98941.73
2022-09-26T18:28:26.703Z,98937.02
2022-09-26T18:31:00.799Z,98934.38
2022-09-26T18:33:37.164Z,98932.52
2022-09-26T18:36:12.958Z,98931.13
2022-09-26T18:38:43.703Z,98928.84
2022-09-26T18:41:15.841Z,98932.62
2022-09-26T18:43:50.897Z,98929.80
2022-09-26T18:46:22.877Z,98930.95
2022-09-26T18:48:56.691Z,98932.91
2022-09-26T18:51:28.140Z,98932.80
2022-09-26T18:53:57.134Z,98935.88
2022-09-26T18:56:45.483Z,98937.58
2022-09-26T18:59:16.852Z,98944.89
2022-09-26T19:01:46.237Z,98945.31
2022-09-26T19:04:21.431Z,98953.98
2022-09-26T19:07:01.003Z,98958.18
2022-09-26T19:09:35.137Z,98962.29
2022-09-26T19:12:15.421Z,98967.41
2022-09-26T19:14:46.450Z,98966.67
2022-09-26T19:17:17.462Z,98966.87
2022-09-26T19:19:48.783Z,98966.61
2022-09-26T19:22:20.337Z,98966.45
2022-09-26T19:24:54.871Z,98965.55
2022-09-26T19:27:28.400Z,98969.85
2022-09-26T19:30:02.787Z,98976.38
2022-09-26T19:32:38.943Z,98976.66
2022-09-26T19:35:18.626Z,98981.30
2022-09-26T19:37:49.260Z,98985.01
2022-09-26T19:40:22.118Z,98984.30
2022-09-26T19:42:53.319Z,98983.66
2022-09-26T19:45:24.479Z,98984.38
2022-09-26T19:47:57.209Z,98980.48
2022-09-26T19:50:29.140Z,98979.02
2022-09-26T19:53:00.173Z,98972.45
2022-09-26T19:55:32.486Z,98969.81
2022-09-26T19:58:12.284Z,98971.11
2022-09-26T20:00:44.643Z,98969.20
2022-09-26T20:03:20.253Z,98971.73
2022-09-26T20:05:51.799Z,98969.70
2022-09-26T20:08:23.959Z,98966.27
2022-09-26T20:10:55.755Z,98959.56
2022-09-26T20:13:26.506Z,98957.59
2022-09-26T20:15:58.130Z,98955.43
2022-09-26T20:18:28.913Z,98945.95
2022-09-26T20:20:59.821Z,98940.02
2022-09-26T20:23:31.217Z,98938.95
2022-09-26T20:26:00.261Z,98934.00
2022-09-26T20:28:31.112Z,98932.05
2022-09-26T20:31:01.750Z,98929.98
2022-09-26T20:33:33.371Z,98930.05
2022-09-26T20:36:06.754Z,98929.85
2022-09-26T20:38:42.233Z,98923.39
2022-09-26T20:41:19.560Z,98920.48
2022-09-26T20:43:53.704Z,98914.87
2022-09-26T20:46:24.378Z,98912.16
2022-09-26T20:48:55.042Z,98907.30
2022-09-26T20:51:28.250Z,98902.19
2022-09-26T20:53:59.561Z,98898.74
2022-09-26T20:56:30.706Z,98900.80
2022-09-26T20:59:01.309Z,98894.84
2022-09-26T21:01:32.084Z,98891.01
2022-09-26T21:04:03.351Z,98888.05
2022-09-26T21:06:37.287Z,98882.45
2022-09-26T21:09:11.887Z,98876.86
2022-09-26T21:11:42.703Z,98868.88
2022-09-26T21:14:13.570Z,98865.65
2022-09-26T21:16:47.831Z,98857.62
2022-09-26T21:19:22.968Z,98855.86
2022-09-26T21:21:57.623Z,98850.66
2022-09-26T21:24:38.727Z,98848.72
2022-09-26T21:27:12.826Z,98842.05
2022-09-26T21:29:43.833Z,98840.86
2022-09-26T21:32:20.489Z,98834.35
2022-09-26T21:34:57.926Z,98831.84
2022-09-26T21:37:28.711Z,98829.38
2022-09-26T21:39:59.259Z,98820.69
2022-09-26T21:42:30.026Z,98820.67
2022-09-26T21:45:03.984Z,98818.83
2022-09-26T21:47:36.610Z,98815.18
2022-09-26T21:50:08.715Z,98810.58
2022-09-26T21:52:43.398Z,98808.27
2022-09-26T21:55:18.212Z,98807.67
2022-09-26T21:57:52.132Z,98804.00
2022-09-26T22:00:22.871Z,98800.29
2022-09-26T22:02:55.108Z,98794.67
2022-09-26T22:05:25.824Z,98790.70
2022-09-26T22:07:57.434Z,98788.33
2022-09-26T22:10:29.318Z,98785.16
2022-09-26T22:13:00.361Z,98782.48
2022-09-26T22:15:30.899Z,98783.52
2022-09-26T22:18:01.489Z,98775.77
2022-09-26T22:20:33.830Z,98772.60
2022-09-26T22:23:04.451Z,98772.77
2022-09-26T22:25:36.270Z,98768.39
2022-09-26T22:28:08.492Z,98766.16
2022-09-26T22:30:41.348Z,98763.86
2022-09-26T22:33:13.322Z,98763.70
2022-09-26T22:35:47.121Z,98764.63
2022-09-26T22:38:18.399Z,98757.31
2022-09-26T22:40:58.171Z,98755.17
2022-09-26T22:43:29.088Z,98753.97
2022-09-26T22:46:05.577Z,98752.32
2022-09-26T22:48:37.617Z,98744.31
2022-09-26T22:51:09.182Z,98740.52
2022-09-26T22:53:40.988Z,98735.61
2022-09-26T22:56:13.535Z,98729.17
2022-09-26T22:58:47.320Z,98722.77
2022-09-26T23:01:23.652Z,98722.25
2022-09-26T23:03:54.455Z,98717.28
2022-09-26T23:06:26.162Z,98712.30
2022-09-26T23:08:56.934Z,98711.92
2022-09-26T23:11:28.259Z,98705.57
2022-09-26T23:13:58.933Z,98701.50
2022-09-26T23:16:29.805Z,98697.77
2022-09-26T23:19:00.866Z,98694.99
2022-09-26T23:21:31.489Z,98693.48
2022-09-26T23:24:02.743Z,98687.88
2022-09-26T23:26:34.067Z,98684.95
2022-09-26T23:29:03.093Z,98681.30
2022-09-26T23:31:33.793Z,98683.11
2022-09-26T23:34:04.805Z,98677.92
2022-09-26T23:36:35.455Z,98672.52
2022-09-26T23:39:06.057Z,98667.83
2022-09-26T23:41:36.704Z,98660.34
2022-09-26T23:44:07.257Z,98661.23
2022-09-26T23:46:38.382Z,98660.76
2022-09-26T23:49:08.993Z,98655.83
2022-09-26T23:51:39.629Z,98653.22
2022-09-26T23:54:11.005Z,98649.14
2022-09-26T23:56:41.485Z,98644.43
2022-09-26T23:59:11.950Z,98639.17
